• Join FlightAware (Why Join?)
  • Login
  • US Flag 
02:06PM EST


 

Airport Tracker/Info


-or-


 

Live Flight TrackerFlight Track Log ✈ RLI811 ✈ 12-Jul-2013 ✈ KBDR - KMVY

Flight Track Log - Related Links

Times and Time Zones

All times are in EDT time to prevent confusion due to time zone crossing. See the RLI811 flight status page for this flight to view local times or setup timezone preferences in your user account.

Time Position Orientation Groundspeed Altitude Reporting Facility
EDT Latitude Longitude Course Direction KTS MPH feet Rate Location/Type
07:10AM 41.1333 -73.0667 82° East 179 206 5,500  Level New York TRACON
07:12AM 41.1414 -72.9974 81° East  Level Estimated
07:13AM 41.1856 -72.9091 82° East  Level Estimated
07:14AM 41.1899 -72.8656 82° East  Level Estimated
07:14AM 41.1667 -72.8000 81° East 178 205 5,500  Level New York TRACON
07:15AM 41.1943 -72.8222 82° East  Level Estimated
07:15AM 41.1667 -72.7333 90° East 179 206 5,500  Level New York TRACON
07:16AM 41.1833 -72.6667 72° East 178 205 5,500  Level New York TRACON
07:17AM 41.1792 -72.5753 93° East 247 284 5,500  Level Boston Center
07:18AM 41.1917 -72.5394 65° Northeast 237 273 5,500  Level Boston Center
07:19AM 41.1763 -72.6943 81° East  Level Estimated
07:19AM 41.1978 -72.4731 83° East 172 198 5,500  Level Boston Center
07:20AM 41.2061 -72.4097 80° East 171 197 5,500  Level Boston Center
07:21AM 41.2125 -72.3519 82° East 174 200 5,500  Level Boston Center
07:22AM 41.2186 -72.2883 83° East 172 198 5,500  Level Boston Center
07:23AM 41.2228 -72.2222 85° East 173 199 5,500  Level Boston Center
07:24AM 41.2289 -72.1586 83° East 174 200 5,500  Level Boston Center
07:25AM 41.2392 -72.0950 78° East 171 197 5,500  Level Boston Center
07:26AM 41.2450 -72.0314 83° East 174 200 5,500  Level Boston Center
07:28AM 41.2569 -71.9044 83° East 180 207 5,500  Level Boston Center
07:29AM 41.2672 -71.8297 80° East 174 200 5,500 -120 Level Boston Center
07:31AM 41.2731 -71.7754 82° East  Level Estimated
07:34AM 41.2983 -71.5339 82° East 182 209 5,000  Level Boston Center
07:35AM 41.3061 -71.4564 82° East 186 214 4,900 -60 Descending Boston Center
07:36AM 41.3117 -71.3844 84° East 175 201 4,900  Level Boston Center
07:37AM 41.3194 -71.3208 81° East 174 200 4,900  Level Boston Center
07:38AM 41.3058 -71.4713 82° East  Level Estimated
07:38AM 41.3250 -71.2569 83° East 175 201 5,000  Level Boston Center
07:39AM 41.3104 -71.4278 82° East  Level Estimated
07:39AM 41.3347 -71.1933 78° East 175 201 4,900  Level Boston Center
07:40AM 41.3486 -71.1294 74° East 177 204 5,000  Climbing Boston Center
07:41AM 41.3647 -71.0711 70° East 175 201 5,000 -60 Level Boston Center
07:42AM 41.3867 -71.0014 67° East 179 206 4,900 -120 Descending Boston Center
07:44AM 41.3833 -70.9493 95° East  Level FlightAware Approximate
07:51AM 41.3768 -70.6396 77° East  Level FlightAware Approximate